• Join FlightAware (Why Join?)
  • Login
  • US Flag 
12:42PM EDT


 

Airport Tracker/Info


-or-


 

Live Flight TrackerFlight Track Log ✈ RZO3200 ✈ 02-Jul-2012 ✈ KBOS - LPPT / LIS

Flight Track Log - Related Links

Times and Time Zones

All times are in EDT time to prevent confusion due to time zone crossing. See the RZO3200 flight status page for this flight to view local times or setup timezone preferences in your user account.

Time Position Orientation Groundspeed Altitude Reporting Facility
EDT Latitude Longitude Course Direction KTS MPH feet Rate Location/Type
02:22AM 42.3500 -71.0167 180° South 186 214 1,000  Level Boston TRACON
02:22AM 42.3333 -71.0167 132° Southeast 175 201 1,300 1,500 Climbing Boston TRACON
02:23AM 42.3000 -70.9667 71° East 215 247 2,700 1,560 Climbing Boston TRACON
02:24AM 42.3191 -70.8900 76° East 265 305 4,700 2,400 Climbing FlightAware
02:24AM 42.3297 -70.8320 77° East 280 322 6,300 3,960 Climbing FlightAware
02:24AM 42.3341 -70.8063 93° East 286 329 6,900 2,400 Climbing FlightAware
02:25AM 42.3320 -70.7430 97° East 297 342 8,500 2,460 Climbing FlightAware
02:25AM 42.3289 -70.7087 96° East 299 344 9,400 2,400 Climbing FlightAware
02:26AM 42.3219 -70.6255 96° East 326 375 10,900 1,860 Climbing FlightAware
02:27AM 42.3167 -70.5616 86° East 356 410 11,600 1,560 Climbing FlightAware
02:28AM 42.3242 -70.4230 70° East 394 453 13,300 1,860 Climbing FlightAware
02:28AM 42.3431 -70.3520 70° East 404 465 14,400 2,220 Climbing FlightAware
02:29AM 42.3687 -70.2544 71° East 416 479 15,900 2,040 Climbing FlightAware
02:29AM 42.3903 -70.1701 71° East 427 491 17,000 1,980 Climbing FlightAware
02:30AM 42.4108 -70.0907 71° East 434 499 18,100 1,980 Climbing FlightAware
02:30AM 42.4338 -70.0006 71° East 441 507 19,200 1,380 Climbing FlightAware
02:31AM 42.4516 -69.9301 70° East 447 514 20,100 1,680 Climbing FlightAware
02:32AM 42.5094 -69.7164 70° East 442 509 22,200 1,920 Climbing Boston Center
02:33AM 42.5553 -69.5481 74° East 454 522 23,800 1,560 Climbing Boston Center
02:34AM 42.5925 -69.3714 72° East 470 541 25,400 1,380 Climbing Boston Center
02:35AM 42.6353 -69.1914 72° East 483 556 26,600 1,140 Climbing Boston Center
02:36AM 42.6800 -69.0083 72° East 495 570 27,700 1,140 Climbing Boston Center
02:37AM 42.7261 -68.8192 71° East 508 585 28,900 1,320 Climbing Boston Center
02:38AM 42.7722 -68.6325 73° East 518 596 30,400 1,380 Climbing Boston Center
02:39AM 42.8158 -68.4431 72° East 518 596 31,700 1,140 Climbing Boston Center
02:40AM 42.8611 -68.2558 72° East 513 590 32,700 600 Climbing Boston Center
02:41AM 42.9061 -68.0656 72° East 513 590 33,000 60 Climbing Boston Center
02:43AM 42.9933 -67.6872 72° East 518 596 33,000  Level Boston Center
02:44AM 43.0372 -67.4964 72° East 518 596 33,000  Level Boston Center
02:45AM 43.0811 -67.3078 73° East 518 596 33,000  Level Boston Center
02:46AM 43.1225 -67.1192 79° East 512 589 33,000  Level Boston Center
02:47AM 43.1500 -66.9167 60° Northeast 520 598 33,000  Level Moncton Center
02:48AM 43.2333 -66.7167 68° East 520 598 33,000  Level Moncton Center
02:49AM 43.2833 -66.5500 65° Northeast 520 598 33,000  Level Moncton Center
02:50AM 43.3500 -66.3500 69° East 520 598 33,000  Level Moncton Center
02:51AM 43.4000 -66.1667 69° East 520 598 33,000  Level Moncton Center
02:52AM 43.4500 -65.9833 63° Northeast 520 598 33,000  Level Moncton Center
02:53AM 43.5167 -65.8000 69° East 520 598 33,000  Level Moncton Center
02:54AM 43.5667 -65.6167 63° Northeast 520 598 33,000  Level Moncton Center
02:55AM 43.6333 -65.4333 69° East 520 598 33,000  Level Moncton Center
02:56AM 43.6833 -65.2500 69° East 520 598 33,000  Level Moncton Center
02:57AM 43.7333 -65.0667 63° Northeast 520 598 33,000  Level Moncton Center
02:58AM 43.8000 -64.8833 69° East 520 598 33,000  Level Moncton Center
02:59AM 43.8500 -64.7000 69° East 530 610 33,000  Level Moncton Center
03:00AM 43.9000 -64.5167 67° East 530 610 33,000  Level Moncton Center
03:01AM 43.9667 -64.3000 67° East 520 598 33,000  Level Moncton Center
03:02AM 44.0167 -64.1333 71° East 520 598 33,000  Level Moncton Center
03:03AM 44.0667 -63.9333 67° East 520 598 33,000  Level Moncton Center
03:04AM 44.1167 -63.7667 69° East 530 610 33,000  Level Gander Center
03:05AM 44.1667 -63.5833 72° East 520 598 33,000  Level Gander Center
03:06AM 44.2167 -63.3667 58° Northeast 520 598 33,000  Level Gander Center
03:07AM 44.2833 -63.2167 72° East 520 598 33,000  Level Gander Center
03:08AM 44.3333 -63.0000 69° East 520 598 33,000  Level Gander Center
03:09AM 44.3833 -62.8167 69° East 520 598 33,000  Level Gander Center
03:10AM 44.4333 -62.6333 69° East 520 598 33,000  Level Gander Center
03:11AM 44.4833 -62.4500 72° East 520 598 33,000  Level Gander Center
03:12AM 44.5333 -62.2333 65° Northeast 520 598 33,000  Level Gander Center
03:13AM 44.5833 -62.0833 67° East 520 598 33,000  Level Gander Center
03:14AM 44.6500 -61.8667 69° East 520 598 33,000  Level Gander Center
03:15AM 44.7000 -61.6833 69° East 520 598 33,000  Level Gander Center
03:16AM 44.7500 -61.5000 71° East 520 598 33,000  Level Gander Center
03:17AM 44.8000 -61.3000 71° East 520 598 33,000  Level Gander Center
03:18AM 44.8500 -61.1000 70° East 520 598 33,000  Level Gander Center
03:19AM 44.9000 -60.9000 67° East 520 598 33,000  Level Gander Center
03:20AM 44.9500 -60.7333 77° East 520 598 33,000  Level Gander Center
03:21AM 44.9833 -60.5333 70° East 520 598 33,100 300 Climbing Gander Center
03:22AM 45.0333 -60.3333 69° East 510 587 33,700 600 Climbing Gander Center
03:23AM 45.0833 -60.1500 69° East 520 598 34,400 600 Climbing Gander Center
03:24AM 45.1333 -59.9667 70° East 520 598 35,000 300 Climbing Gander Center
03:25AM 45.1833 -59.7667 69° East 520 598 35,000  Level Gander Center
03:26AM 45.2333 -59.5833 72° East 520 598 35,000  Level Gander Center
03:27AM 45.2833 -59.3667 77° East 530 610 35,000  Level Gander Center
03:28AM 45.3167 -59.1667 72° East 530 610 35,000  Level Gander Center
03:29AM 45.3667 -58.9500 67° East 530 610 35,000  Level Gander Center
03:30AM 45.4167 -58.7833 72° East 530 610 35,000  Level Gander Center
03:31AM 45.4667 -58.5667 75° East 530 610 35,000  Level Gander Center
03:32AM 45.5000 -58.3833 72° East 530 610 35,000  Level Gander Center
03:33AM 45.5500 -58.1667 70° East 530 610 35,000  Level Gander Center
03:34AM 45.6000 -57.9667 77° East 530 610 35,000  Level Gander Center
03:35AM 45.6333 -57.7667 69° East 530 610 35,000  Level Gander Center
03:36AM 45.6833 -57.5833 77° East 530 610 35,000  Level Gander Center
03:37AM 45.7167 -57.3833 72° East 530 610 35,000  Level Gander Center
03:38AM 45.7667 -57.1667 70° East 530 610 35,000  Level Gander Center
03:39AM 45.8167 -56.9667 77° East 530 610 35,000  Level Gander Center
03:40AM 45.8500 -56.7500 69° East 530 610 35,000  Level Gander Center
03:41AM 45.9000 -56.5667 78° East 540 621 35,000  Level Gander Center
03:42AM 45.9333 -56.3333 77° East 530 610 35,000  Level Gander Center
03:43AM 45.9667 -56.1167 76° East 550 633 35,000  Level Gander Center
03:44AM 46.0000 -55.9167 75° East 530 610 35,000  Level Gander Center
03:45AM 46.0333 -55.7333 68° East 540 621 35,000  Level Gander Center
03:46AM 46.1000 -55.5000 82° East 540 621 35,000  Level Gander Center
03:47AM 46.1167 -55.3167 73° East 540 621 35,000  Level Gander Center
03:48AM 46.1667 -55.0833 83° East 540 621 35,000  Level Gander Center
03:49AM 46.1833 -54.8833 70° East 540 621 35,000  Level Gander Center
03:50AM 46.2333 -54.6833 77° East 540 621 35,000  Level Gander Center
03:51AM 46.2667 -54.4667 76° East 540 621 35,000  Level Gander Center
03:52AM 46.3000 -54.2667 71° East 540 621 35,000  Level Gander Center
03:53AM 46.3500 -54.0500 76° East 540 621 35,000  Level Gander Center
03:54AM 46.3833 -53.8500 73° East 540 621 35,000  Level Gander Center
03:55AM 46.4333 -53.6167 82° East 540 621 35,000  Level Gander Center
03:56AM 46.4500 -53.4333 73° East 540 621 35,000  Level Gander Center
03:57AM 46.5000 -53.2000 76° East 540 621 35,000  Level Gander Center
03:58AM 46.5333 -53.0000 83° East 540 621 35,000  Level Gander Center
03:59AM 46.5500 -52.8000 73° East 540 621 35,000  Level Gander Center
04:00AM 46.6000 -52.5667 90° East 540 621 35,000  Level Gander Center
04:01AM 46.6000 -52.4500 70° East 540 621 35,000  Level Gander Center
04:02AM 46.6500 -52.2500 84° East 540 621 35,000  Level Gander Center
04:03AM 46.6667 -52.0167 70° East 540 621 35,000  Level Gander Center
04:04AM 46.7167 -51.8167 77° East 540 621 35,000  Level Gander Center
04:05AM 46.7500 -51.6000 83° East 540 621 35,000  Level Gander Center
04:06AM 46.7667 -51.4000 73° East 540 621 35,000  Level Gander Center
04:07AM 46.8167 -51.1667 76° East 540 621 35,000  Level Gander Center
04:08AM 46.8500 -50.9667 78° East 540 621 35,000  Level Gander Center
04:09AM 46.8833 -50.7333 83° East 540 621 35,000  Level Gander Center
04:10AM 46.9000 -50.5333 78° East 540 621 35,000  Level Gander Center
04:11AM 46.9333 -50.3000 76° East 540 621 35,000  Level Gander Center
04:12AM 46.9667 -50.1000 83° East 540 621 35,000  Level Gander Center
04:13AM 46.9833 -49.8833 96° East 540 621 35,000  Level Gander Center
04:14AM 46.9667 -49.6500 278° West 540 621 35,000  Level Gander Center
04:15AM 47.0000 -50.0000 96° East 532 612 35,000  Level ETMS Enhanced Traffic Management System
04:15AM 46.9500 -49.3667 95° East 530 610 35,000  Level Gander Center
05:03AM 46.0000 -40.0000 102° East 539 620 35,000  Level ETMS Enhanced Traffic Management System
05:03AM 45.9752 -39.8373 102° East  Level FlightAware Approximate
05:04AM 45.9450 -39.6400 102° East  Level FlightAware Approximate
05:05AM 45.9145 -39.4429 103° East  Level FlightAware Approximate
05:06AM 45.8837 -39.2460 103° East  Level FlightAware Approximate
05:07AM 45.8525 -39.0494 103° East  Level FlightAware Approximate
05:10AM 45.6626 -37.8971 104° East 539 620 35,000  Level FlightAware Transoceanic
05:11AM 45.6268 -37.6890 104° East 539 620 35,000  Level FlightAware Transoceanic
05:12AM 45.5907 -37.4811 104° East 539 620 35,000  Level FlightAware Transoceanic
05:13AM 45.5542 -37.2735 104° East 539 620 35,000  Level FlightAware Transoceanic
05:14AM 45.5173 -37.0661 104° East 539 620 35,000  Level FlightAware Transoceanic
05:15AM 45.4801 -36.8590 104° East 539 620 35,000  Level FlightAware Transoceanic
05:16AM 45.4425 -36.6522 105° East 539 620 35,000  Level FlightAware Transoceanic
05:17AM 45.4045 -36.4457 105° East 539 620 35,000  Level FlightAware Transoceanic
05:18AM 45.3661 -36.2394 105° East 539 620 35,000  Level FlightAware Transoceanic
05:19AM 45.3274 -36.0334 105° East 539 620 35,000  Level FlightAware Transoceanic
05:20AM 45.2883 -35.8278 105° East 539 620 35,000  Level FlightAware Transoceanic
05:21AM 45.2489 -35.6223 105° East 539 620 35,000  Level FlightAware Transoceanic
05:22AM 45.2090 -35.4172 105° East 539 620 35,000  Level FlightAware Transoceanic
05:23AM 45.1688 -35.2124 106° East 539 620 35,000  Level FlightAware Transoceanic
05:24AM 45.1282 -35.0079 106° East 539 620 35,000  Level FlightAware Transoceanic
05:25AM 45.0873 -34.8036 106° East 539 620 35,000  Level FlightAware Transoceanic
05:26AM 45.0460 -34.5997 106° East 539 620 35,000  Level FlightAware Transoceanic
05:27AM 45.0044 -34.3960 106° East 539 620 35,000  Level FlightAware Transoceanic
05:28AM 44.9623 -34.1926 106° East 539 620 35,000  Level FlightAware Transoceanic
05:29AM 44.9200 -33.9896 106° East 539 620 35,000  Level FlightAware Transoceanic
05:30AM 44.8772 -33.7868 107° East 539 620 35,000  Level FlightAware Transoceanic
05:31AM 44.8341 -33.5843 107° East 539 620 35,000  Level FlightAware Transoceanic
05:32AM 44.7907 -33.3822 107° East 539 620 35,000  Level FlightAware Transoceanic
05:33AM 44.7469 -33.1803 107° East 539 620 35,000  Level FlightAware Transoceanic
05:34AM 44.7027 -32.9788 107° East 539 620 35,000  Level FlightAware Transoceanic
05:35AM 44.6582 -32.7776 107° East 539 620 35,000  Level FlightAware Transoceanic
05:36AM 44.6133 -32.5766 107° East 539 620 35,000  Level FlightAware Transoceanic
05:37AM 44.5681 -32.3760 108° East 539 620 35,000  Level FlightAware Transoceanic
05:38AM 44.5225 -32.1757 108° East 539 620 35,000  Level FlightAware Transoceanic
05:39AM 44.4766 -31.9757 108° East 539 620 35,000  Level FlightAware Transoceanic
05:40AM 44.4303 -31.7761 108° East 539 620 35,000  Level FlightAware Transoceanic
05:41AM 44.3837 -31.5767 108° East 539 620 35,000  Level FlightAware Transoceanic
05:42AM 44.3367 -31.3777 108° East 539 620 35,000  Level FlightAware Transoceanic
05:43AM 44.2894 -31.1790 108° East 539 620 35,000  Level FlightAware Transoceanic
05:44AM 44.2417 -30.9806 109° East 539 620 35,000  Level FlightAware Transoceanic
05:45AM 44.1937 -30.7825 109° East 539 620 35,000  Level FlightAware Transoceanic
05:46AM 44.1454 -30.5847 109° East 539 620 35,000  Level FlightAware Transoceanic
05:47AM 44.0967 -30.3873 109° East 539 620 35,000  Level FlightAware Transoceanic
05:48AM 44.0477 -30.1902 102° East 539 620 35,000 60 Level FlightAware Transoceanic
05:49AM 44.0181 -29.9993 102° East  Level FlightAware Approximate
05:50AM 43.9884 -29.8085 102° East  Level FlightAware Approximate
05:51AM 43.9584 -29.6178 103° East  Level FlightAware Approximate
05:52AM 43.9280 -29.4274 103° East  Level FlightAware Approximate
05:53AM 43.8974 -29.2372 103° East  Level FlightAware Approximate
05:54AM 43.8664 -29.0472 103° East  Level FlightAware Approximate
05:55AM 43.8351 -28.8573 103° East  Level FlightAware Approximate
05:56AM 43.8035 -28.6677 103° East  Level FlightAware Approximate
05:57AM 43.7716 -28.4783 103° East  Level FlightAware Approximate
05:58AM 43.7393 -28.2890 104° East  Level FlightAware Approximate
05:59AM 43.7068 -28.1000 104° East  Level FlightAware Approximate
06:00AM 43.6740 -27.9112 104° East  Level FlightAware Approximate
06:01AM 43.6408 -27.7226 104° East  Level FlightAware Approximate
06:02AM 43.6073 -27.5342 104° East  Level FlightAware Approximate
06:03AM 43.5534 -27.3570 103° East  Level FlightAware Approximate
06:04AM 43.5204 -27.1688 103° East  Level FlightAware Approximate
06:05AM 43.4871 -26.9807 104° East  Level FlightAware Approximate
06:06AM 43.4535 -26.7928 104° East  Level FlightAware Approximate
06:07AM 43.4196 -26.6051 104° East  Level FlightAware Approximate
06:08AM 43.3853 -26.4177 104° East  Level FlightAware Approximate
06:09AM 43.3508 -26.2304 104° East  Level FlightAware Approximate
06:10AM 43.3160 -26.0434 104° East  Level FlightAware Approximate
06:11AM 43.2808 -25.8566 104° East  Level FlightAware Approximate
06:12AM 43.2454 -25.6700 103° East  Level FlightAware Approximate
06:13AM 43.2198 -25.5132 105° East 518 596 37,000  Level FlightAware
06:15AM 43.1441 -25.1329 105° East 518 596 37,000  Level FlightAware
06:16AM 43.1245 -25.0354 105° East 516 594 37,000  Level FlightAware
06:20AM 42.9708 -24.2859 106° East 516 594 37,000  Level FlightAware
06:20AM 42.9405 -24.1408 106° East 516 594 37,000  Level FlightAware
06:23AM 42.8509 -23.7180 106° East 516 594 37,000  Level FlightAware
06:24AM 42.8074 -23.5164 106° East 516 594 37,000  Level FlightAware
06:25AM 42.7496 -23.2499 107° East 518 596 37,000  Level FlightAware
06:27AM 42.6759 -22.9150 107° East 517 595 37,000  Level FlightAware
06:30AM 42.5719 -22.4505 107° East 518 596 37,000  Level FlightAware
06:30AM 42.5408 -22.3135 109° East 519 597 37,000 -300 Level FlightAware
06:38AM 42.2951 -20.9555 110° East  Level FlightAware Approximate
06:39AM 42.2604 -20.7716 110° East  Level FlightAware Approximate
06:40AM 42.2254 -20.5879 111° Southeast  Level FlightAware Approximate
06:41AM 42.1902 -20.4044 111° Southeast  Level FlightAware Approximate
06:42AM 42.1546 -20.2211 111° Southeast  Level FlightAware Approximate
06:43AM 42.1188 -20.0380 111° Southeast  Level FlightAware Approximate
06:44AM 42.0761 -19.8577 112° Southeast  Level FlightAware Approximate
06:45AM 42.0331 -19.6776 112° Southeast  Level FlightAware Approximate
06:46AM 41.9899 -19.4978 112° Southeast  Level FlightAware Approximate
06:47AM 41.9464 -19.3182 112° Southeast  Level FlightAware Approximate
06:48AM 41.9026 -19.1389 112° Southeast  Level FlightAware Approximate
06:49AM 41.8585 -18.9598 112° Southeast  Level FlightAware Approximate
06:50AM 41.8142 -18.7810 113° Southeast  Level FlightAware Approximate
06:51AM 41.7695 -18.6024 113° Southeast  Level FlightAware Approximate
06:52AM 41.7246 -18.4240 113° Southeast  Level FlightAware Approximate
06:53AM 41.6794 -18.2460 113° Southeast  Level FlightAware Approximate
06:54AM 41.6340 -18.0681 114° Southeast  Level FlightAware Approximate
06:55AM 41.5882 -17.8905 114° Southeast  Level FlightAware Approximate
06:56AM 41.5422 -17.7132 114° Southeast  Level FlightAware Approximate
06:57AM 41.4960 -17.5361 114° Southeast  Level FlightAware Approximate
06:58AM 41.4494 -17.3593 114° Southeast  Level FlightAware Approximate
06:59AM 41.4026 -17.1827 115° Southeast  Level FlightAware Approximate
07:00AM 41.3555 -17.0064 115° Southeast  Level FlightAware Approximate
07:01AM 41.3081 -16.8303 115° Southeast  Level FlightAware Approximate
07:02AM 41.2605 -16.6545 115° Southeast  Level FlightAware Approximate
07:03AM 41.2126 -16.4790 116° Southeast  Level FlightAware Approximate
07:04AM 41.1645 -16.3037 116° Southeast  Level FlightAware Approximate
07:05AM 41.1160 -16.1287 116° Southeast  Level FlightAware Approximate
07:06AM 41.0673 -15.9539 117° Southeast  Level FlightAware Approximate
07:07AM 41.0184 -15.7794 117° Southeast  Level FlightAware Approximate
07:08AM 40.9692 -15.6051 117° Southeast  Level FlightAware Approximate
07:09AM 40.9197 -15.4311 118° Southeast  Level FlightAware Approximate
07:10AM 40.8700 -15.2574 118° Southeast  Level FlightAware Approximate
07:11AM 40.8200 -15.0839 118° Southeast  Level FlightAware Approximate
07:12AM 40.7667 -14.9123 119° Southeast  Level FlightAware Approximate
07:13AM 40.7132 -14.7409 119° Southeast  Level FlightAware Approximate
07:14AM 40.6594 -14.5699 119° Southeast  Level FlightAware Approximate
07:15AM 40.6053 -14.3991 120° Southeast  Level FlightAware Approximate
07:16AM 40.5510 -14.2286 120° Southeast  Level FlightAware Approximate
07:17AM 40.4965 -14.0583 120° Southeast  Level FlightAware Approximate
07:18AM 40.4417 -13.8884 121° Southeast  Level FlightAware Approximate
07:19AM 40.3867 -13.7187 121° Southeast  Level FlightAware Approximate
07:20AM 40.3314 -13.5493 122° Southeast  Level FlightAware Approximate
07:21AM 40.2758 -13.3801 123° Southeast  Level FlightAware Approximate
07:22AM 40.2201 -13.2113 123° Southeast  Level FlightAware Approximate
07:23AM 40.1640 -13.0427 124° Southeast  Level FlightAware Approximate
07:24AM 40.1078 -12.8744 125° Southeast  Level FlightAware Approximate
07:25AM 40.0513 -12.7064 126° Southeast  Level FlightAware Approximate
07:26AM 39.9945 -12.5387 126° Southeast  Level FlightAware Approximate
07:27AM 39.9375 -12.3712 128° Southeast  Level FlightAware Approximate
07:28AM 39.8803 -12.2040 129° Southeast  Level FlightAware Approximate
07:29AM 39.8228 -12.0371 130° Southeast  Level FlightAware Approximate
07:30AM 39.7651 -11.8705 132° Southeast  Level FlightAware Approximate
07:31AM 39.7927 -11.6965 137° Southeast  Level FlightAware Approximate
07:32AM 39.7298 -11.5332 140° Southeast  Level FlightAware Approximate
07:33AM 39.6666 -11.3701 143° Southeast  Level FlightAware Approximate
07:34AM 39.6101 -11.2035 147° Southeast  Level FlightAware Approximate
07:35AM 39.5466 -11.0415 152° Southeast  Level FlightAware Approximate
07:36AM 39.4819 -10.8800 159° South  Level FlightAware Approximate
07:37AM 39.4174 -10.7185 168° South  Level FlightAware Approximate
07:38AM 39.3500 -10.5591 181° South  Level FlightAware Approximate
07:39AM 38.8407 -10.5650 124° Southeast 370 426 19,500  Level FlightAware
07:40AM 38.7836 -10.4567 124° Southeast 342 394 17,800 -1,620 Descending FlightAware
07:41AM 38.7406 -10.3750 124° Southeast 335 386 16,600 -1,620 Descending FlightAware
07:42AM 38.7104 -10.3174 124° Southeast 330 380 15,700 -1,440 Descending FlightAware
07:42AM 38.6810 -10.2619 124° Southeast 324 373 14,800 -1,680 Descending FlightAware
07:43AM 38.6477 -10.1990 124° Southeast 320 368 13,800 -1,620 Descending FlightAware
07:43AM 38.6144 -10.1367 125° Southeast 315 362 12,800 -1,380 Descending FlightAware
07:44AM 38.5871 -10.0861 102° East 312 359 12,000 -900 Descending FlightAware
07:47AM 38.5392 -9.8111 94° East 294 338 9,900 -1,020 Descending FlightAware
07:47AM 38.5373 -9.7759 93° East 292 336 9,100 -1,140 Descending FlightAware
07:47AM 38.5361 -9.7495 93° East 292 336 9,300 -900 Climbing FlightAware
07:48AM 38.5344 -9.7126 94° East 289 333 8,500 -1,500 Descending FlightAware
07:48AM 38.5326 -9.6782 94° East 288 331 8,200 -240 Descending FlightAware
07:48AM 38.5316 -9.6608 94° East 286 329 8,400 -1,020 Climbing FlightAware
07:49AM 38.5297 -9.6260 94° East 284 327 7,700 -1,740 Descending FlightAware
07:49AM 38.5284 -9.5998 94° East 283 326 7,400 -1,200 Descending FlightAware
07:49AM 38.5265 -9.5654 94° East 281 323 7,000 -1,080 Descending FlightAware
07:50AM 38.5247 -9.5318 94° East 273 314 6,700 -180 Descending FlightAware
07:50AM 38.5225 -9.4908 94° East 257 296 6,900 -720 Climbing FlightAware
07:50AM 38.5206 -9.4536 94° East 243 280 6,100 -1,080 Descending FlightAware
07:51AM 38.5194 -9.4310 93° East 240 276 6,100 -1,500 Level FlightAware
07:51AM 38.5182 -9.4018 94° East 235 270 5,100 -1,740 Descending FlightAware
07:51AM 38.5170 -9.3801 74° East 234 269 5,100 -1,200 Level FlightAware
07:52AM 38.5243 -9.3469 65° Northeast 229 264 4,300 -2,160 Descending FlightAware
07:52AM 38.5338 -9.3212 65° Northeast 227 261 3,500 -960 Descending FlightAware
07:53AM 38.5453 -9.2897 65° Northeast 224 258 3,500 -840 Level FlightAware
07:53AM 38.5521 -9.2708 62° Northeast 222 255 2,900 -1,080 Descending FlightAware
07:53AM 38.5623 -9.2466 41° Northeast 221 254 2,900  Level FlightAware
07:53AM 38.5646 -9.2440 24° Northeast 219 252 2,900  Level FlightAware
07:53AM 38.5766 -9.2371 14° North 219 252 2,900  Level FlightAware
07:54AM 38.5906 -9.2327 17° North 219 252 2,900  Level FlightAware
07:54AM 38.5963 -9.2305 23° Northeast 206 237 2,900  Level FlightAware
07:54AM 38.6127 -9.2214 23° Northeast 195 224 2,900 -180 Level FlightAware
07:54AM 38.6234 -9.2156 22° Northeast 192 221 2,800 -840 Descending FlightAware
07:55AM 38.6532 -9.2000 23° Northeast 190 219 2,300 -1,200 Descending FlightAware
07:55AM 38.6701 -9.1908 22° Northeast 177 204 1,900 -1,020 Descending FlightAware
07:55AM 38.6780 -9.1867 23° Northeast 174 200 1,800 -720 Descending FlightAware
07:56AM 38.6959 -9.1771 23° Northeast 158 182 1,500 -900 Descending FlightAware
07:56AM 38.7027 -9.1734 22° Northeast 143 165 1,300 -840 Descending FlightAware
07:56AM 38.7150 -9.1669 23° Northeast 124 143 1,100 -780 Descending FlightAware
07:57AM 38.7264 -9.1608 22° Northeast 126 145 800 -780 Descending FlightAware
07:57AM 38.7378 -9.1548 23° Northeast 126 145 600 -600 Descending FlightAware
07:57AM 38.7496 -9.1483 17° North 128 147 400 -600 Descending FlightAware
08:11AM 40.5410 -8.4301 197° South  Level Estimated
08:12AM 38.7667 -9.1333 197° South  Level FlightAware Approximate